createdAt,value
2018-05-21T00:01:34.660Z,76.42
2018-05-21T00:04:02.586Z,76.35
2018-05-21T00:06:30.836Z,76.13
2018-05-21T00:08:58.750Z,76.22
2018-05-21T00:11:26.686Z,77.08
2018-05-21T00:13:54.590Z,76.69
2018-05-21T00:16:22.506Z,76.40
2018-05-21T00:18:50.404Z,75.60
2018-05-21T00:21:18.356Z,75.60
2018-05-21T00:23:46.394Z,75.47
2018-05-21T00:26:14.300Z,75.23
2018-05-21T00:28:42.344Z,74.79
2018-05-21T00:31:10.243Z,74.41
2018-05-21T00:33:38.148Z,74.37
2018-05-21T00:36:06.065Z,74.15
2018-05-21T00:38:34.080Z,73.70
2018-05-21T00:41:02.019Z,74.07
2018-05-21T00:43:29.926Z,74.99
2018-05-21T00:45:57.871Z,74.45
2018-05-21T00:48:25.793Z,74.66
2018-05-21T00:50:53.685Z,74.66
2018-05-21T00:53:21.595Z,74.83
2018-05-21T00:55:49.580Z,74.67
2018-05-21T00:58:17.618Z,75.95
2018-05-21T01:00:45.517Z,76.27
2018-05-21T01:03:13.480Z,76.11
2018-05-21T01:05:41.459Z,75.63
2018-05-21T01:08:09.574Z,76.43
2018-05-21T01:10:37.484Z,76.57
2018-05-21T01:13:05.412Z,76.33
2018-05-21T01:15:33.320Z,76.22
2018-05-21T01:18:01.258Z,75.85
2018-05-21T01:20:29.168Z,75.75
2018-05-21T01:22:57.088Z,75.92
2018-05-21T01:25:24.993Z,75.66
2018-05-21T01:27:53.026Z,75.81
2018-05-21T01:30:21.017Z,75.93
2018-05-21T01:32:49.189Z,76.95
2018-05-21T01:35:17.111Z,76.87
2018-05-21T01:37:45.037Z,76.95
2018-05-21T01:40:13.004Z,76.92
2018-05-21T01:42:40.911Z,77.15
2018-05-21T01:45:08.830Z,76.83
2018-05-21T01:47:36.778Z,78.04
2018-05-21T01:50:04.696Z,77.78
2018-05-21T01:52:32.603Z,78.11
2018-05-21T01:55:00.547Z,77.86
2018-05-21T01:57:28.484Z,77.79
2018-05-21T01:59:56.539Z,78.29
2018-05-21T02:02:24.428Z,80.18
2018-05-21T02:04:52.367Z,80.77
2018-05-21T02:07:20.275Z,80.25
2018-05-21T02:09:48.184Z,80.07
2018-05-21T02:12:16.261Z,81.36
2018-05-21T02:14:44.153Z,80.78
2018-05-21T02:17:12.088Z,80.46
2018-05-21T02:19:40.077Z,80.24
2018-05-21T02:22:08.038Z,79.96
2018-05-21T02:24:35.949Z,79.51
2018-05-21T02:27:03.877Z,79.33
2018-05-21T02:29:31.802Z,79.59
2018-05-21T02:31:59.722Z,79.48
2018-05-21T02:34:27.665Z,79.98
2018-05-21T02:36:56.424Z,80.63
2018-05-21T02:39:24.298Z,80.43
2018-05-21T02:41:52.416Z,80.85
2018-05-21T02:44:20.315Z,80.52
2018-05-21T02:46:48.220Z,80.94
2018-05-21T02:49:16.150Z,80.99
2018-05-21T02:51:44.075Z,80.56
2018-05-21T02:54:11.968Z,80.91
2018-05-21T02:56:39.884Z,81.22
2018-05-21T02:59:07.802Z,81.30
2018-05-21T03:01:35.728Z,81.13
2018-05-21T03:04:03.638Z,80.76
2018-05-21T03:06:31.632Z,80.83
2018-05-21T03:08:59.564Z,81.53
2018-05-21T03:11:27.556Z,80.98
2018-05-21T03:13:55.566Z,81.04
2018-05-21T03:16:24.508Z,80.58
2018-05-21T03:18:52.625Z,80.34
2018-05-21T03:21:20.662Z,80.50
2018-05-21T03:23:48.564Z,81.20
2018-05-21T03:26:16.538Z,80.43
2018-05-21T03:28:44.436Z,80.69
2018-05-21T03:31:12.360Z,80.91
2018-05-21T03:33:40.298Z,80.88
2018-05-21T03:36:08.207Z,80.93
2018-05-21T03:38:36.113Z,81.22
2018-05-21T03:41:04.068Z,81.60
2018-05-21T03:43:31.971Z,82.18
2018-05-21T03:45:59.901Z,82.25
2018-05-21T03:48:27.807Z,82.04
2018-05-21T03:50:55.732Z,82.06
2018-05-21T03:53:23.660Z,81.47
2018-05-21T03:55:51.636Z,81.50
2018-05-21T03:58:31.438Z,81.50
2018-05-21T04:01:11.115Z,80.97
2018-05-21T04:03:55.983Z,80.85
2018-05-21T04:06:23.987Z,80.89
2018-05-21T04:08:51.904Z,80.75
2018-05-21T04:11:19.825Z,80.38
2018-05-21T04:13:47.738Z,80.41
2018-05-21T04:16:15.685Z,80.23
2018-05-21T04:18:43.691Z,80.41
2018-05-21T04:21:11.595Z,80.18
2018-05-21T04:23:39.538Z,80.56
2018-05-21T04:26:07.453Z,80.81
2018-05-21T04:28:35.364Z,80.13
2018-05-21T04:31:03.271Z,79.88
2018-05-21T04:33:31.203Z,79.76
2018-05-21T04:35:59.107Z,79.79
2018-05-21T04:38:27.048Z,79.86
2018-05-21T04:40:54.986Z,79.81
2018-05-21T04:43:22.926Z,79.66
2018-05-21T04:45:50.851Z,79.73
2018-05-21T04:48:19.030Z,79.47
2018-05-21T04:50:46.934Z,79.17
2018-05-21T04:53:14.881Z,78.63
2018-05-21T04:55:42.786Z,78.58
2018-05-21T04:58:11.196Z,78.50
2018-05-21T05:00:39.456Z,78.70
2018-05-21T05:03:07.419Z,78.72
2018-05-21T05:05:35.331Z,78.84
2018-05-21T05:08:03.262Z,78.24
2018-05-21T05:10:31.182Z,78.00
2018-05-21T05:12:59.135Z,78.56
2018-05-21T05:15:27.127Z,78.50
2018-05-21T05:17:55.093Z,78.43
2018-05-21T05:20:23.027Z,78.26
2018-05-21T05:22:50.944Z,78.08
2018-05-21T05:25:18.870Z,78.29
2018-05-21T05:27:46.773Z,78.11
2018-05-21T05:30:14.746Z,77.96
2018-05-21T05:32:42.659Z,77.98
2018-05-21T05:35:10.619Z,77.48
2018-05-21T05:37:38.526Z,77.41
2018-05-21T05:40:06.440Z,77.43
2018-05-21T05:42:34.352Z,76.91
2018-05-21T05:45:02.278Z,76.48
2018-05-21T05:47:30.216Z,76.16
2018-05-21T05:49:58.124Z,75.86
2018-05-21T05:52:26.062Z,75.29
2018-05-21T05:54:53.984Z,75.34
2018-05-21T05:57:21.929Z,75.12
2018-05-21T05:59:50.648Z,74.86
2018-05-21T06:02:18.555Z,74.07
2018-05-21T06:04:46.467Z,73.78
2018-05-21T06:07:14.395Z,73.25
2018-05-21T06:09:42.821Z,72.12
2018-05-21T06:12:10.784Z,72.25
2018-05-21T06:14:38.725Z,71.89
2018-05-21T06:17:07.591Z,71.21
2018-05-21T06:19:35.584Z,70.56
2018-05-21T06:22:03.528Z,69.03
2018-05-21T06:24:31.466Z,68.55
2018-05-21T06:26:59.380Z,68.63
2018-05-21T06:29:27.317Z,68.67
2018-05-21T06:31:55.467Z,67.70
2018-05-21T06:34:23.524Z,66.90
2018-05-21T06:36:51.335Z,66.62
2018-05-21T06:39:19.279Z,66.43
2018-05-21T06:41:47.227Z,66.59
2018-05-21T06:44:15.142Z,66.11
2018-05-21T06:46:43.072Z,66.56
2018-05-21T06:49:11.032Z,65.43
2018-05-21T06:51:39.035Z,65.19
2018-05-21T06:54:07.023Z,64.18
2018-05-21T06:56:35.063Z,63.23
2018-05-21T06:59:03.578Z,62.96
2018-05-21T07:01:31.508Z,62.96
2018-05-21T07:03:59.446Z,62.78
2018-05-21T07:06:27.377Z,61.69
2018-05-21T07:08:55.299Z,60.54
2018-05-21T07:11:23.267Z,59.09
2018-05-21T07:13:51.216Z,58.09
2018-05-21T07:16:19.142Z,57.82
2018-05-21T07:18:47.048Z,57.55
2018-05-21T07:21:14.978Z,57.46
2018-05-21T07:23:42.891Z,57.04
2018-05-21T07:26:10.803Z,57.38
2018-05-21T07:28:38.806Z,55.69
2018-05-21T07:31:06.730Z,56.10
2018-05-21T07:33:34.667Z,55.37
2018-05-21T07:36:02.671Z,54.17
2018-05-21T07:38:30.688Z,53.79
2018-05-21T07:40:58.655Z,54.32
2018-05-21T07:43:26.572Z,54.06
2018-05-21T07:45:54.501Z,53.77
2018-05-21T07:48:22.524Z,52.30
2018-05-21T07:50:50.480Z,52.43
2018-05-21T07:53:18.576Z,51.41
2018-05-21T07:55:46.519Z,51.08
2018-05-21T07:58:14.501Z,50.60
2018-05-21T08:00:42.395Z,49.73
2018-05-21T08:03:10.353Z,48.08
2018-05-21T08:05:38.267Z,47.83
2018-05-21T08:08:06.252Z,47.12
2018-05-21T08:10:34.232Z,46.46
2018-05-21T08:13:02.144Z,46.82
2018-05-21T08:15:30.238Z,47.26
2018-05-21T08:17:58.165Z,48.22
2018-05-21T08:20:26.102Z,46.39
2018-05-21T08:22:53.987Z,46.25
2018-05-21T08:25:21.971Z,45.95
2018-05-21T08:27:50.001Z,45.69
2018-05-21T08:30:17.926Z,43.72
2018-05-21T08:32:45.825Z,43.26
2018-05-21T08:35:13.788Z,43.58
2018-05-21T08:37:41.702Z,43.55
2018-05-21T08:40:09.652Z,43.26
2018-05-21T08:42:37.607Z,42.68
2018-05-21T08:45:05.493Z,43.47
2018-05-21T08:47:34.268Z,43.64
2018-05-21T08:50:02.192Z,43.55
2018-05-21T08:52:30.113Z,42.61
2018-05-21T08:54:58.026Z,42.07
2018-05-21T08:57:25.975Z,41.74
2018-05-21T08:59:53.898Z,40.55
2018-05-21T09:02:21.808Z,40.94
2018-05-21T09:04:49.777Z,40.78
2018-05-21T09:07:17.660Z,40.55
2018-05-21T09:09:46.268Z,40.02
2018-05-21T09:12:14.203Z,39.37
2018-05-21T09:14:42.130Z,37.21
2018-05-21T09:17:10.632Z,37.36
2018-05-21T09:19:38.546Z,38.48
2018-05-21T09:22:06.466Z,37.34
2018-05-21T09:24:34.380Z,38.61
2018-05-21T09:27:02.393Z,39.20
2018-05-21T09:29:31.279Z,38.08
2018-05-21T09:31:59.195Z,37.10
2018-05-21T09:34:27.104Z,36.85
2018-05-21T09:36:55.030Z,36.91
2018-05-21T09:39:22.937Z,36.37
2018-05-21T09:41:50.927Z,36.96
2018-05-21T09:44:18.832Z,37.14
2018-05-21T09:46:46.770Z,37.53
2018-05-21T09:49:15.249Z,36.98
2018-05-21T09:51:43.165Z,36.91
2018-05-21T09:54:11.117Z,36.46
2018-05-21T09:56:39.080Z,35.50
2018-05-21T09:59:07.031Z,34.86
2018-05-21T10:01:34.923Z,33.99
2018-05-21T10:04:02.861Z,34.27
2018-05-21T10:06:30.816Z,35.29
2018-05-21T10:08:58.758Z,34.39
2018-05-21T10:11:26.732Z,33.96
2018-05-21T10:13:54.986Z,34.21
2018-05-21T10:16:23.421Z,31.99
2018-05-21T10:18:51.356Z,32.95
2018-05-21T10:21:19.339Z,31.29
2018-05-21T10:23:47.783Z,32.30
2018-05-21T10:26:15.698Z,32.28
2018-05-21T10:28:43.656Z,31.47
2018-05-21T10:31:11.633Z,31.63
2018-05-21T10:33:39.517Z,32.78
2018-05-21T10:36:07.451Z,33.11
2018-05-21T10:38:35.365Z,32.88
2018-05-21T10:41:04.268Z,31.83
2018-05-21T10:43:32.196Z,32.42
2018-05-21T10:46:00.219Z,31.50
2018-05-21T10:48:28.153Z,31.92
2018-05-21T10:50:56.094Z,32.53
2018-05-21T10:53:24.107Z,31.47
2018-05-21T10:55:52.027Z,31.66
2018-05-21T10:58:19.967Z,32.38
2018-05-21T11:00:48.417Z,34.02
2018-05-21T11:03:17.663Z,32.69
2018-05-21T11:05:45.586Z,32.28
2018-05-21T11:08:13.539Z,30.23
2018-05-21T11:10:41.464Z,30.05
2018-05-21T11:13:09.377Z,29.43
2018-05-21T11:15:37.324Z,30.87
2018-05-21T11:18:05.221Z,31.03
2018-05-21T11:20:33.219Z,30.11
2018-05-21T11:23:01.369Z,29.51
2018-05-21T11:25:29.302Z,27.21
2018-05-21T11:27:57.214Z,27.49
2018-05-21T11:30:25.139Z,29.22
2018-05-21T11:32:53.036Z,29.28
2018-05-21T11:35:20.962Z,30.80
2018-05-21T11:37:48.867Z,31.70
2018-05-21T11:40:16.803Z,34.24
2018-05-21T11:42:44.728Z,35.08
2018-05-21T11:45:12.628Z,34.46
2018-05-21T11:47:40.537Z,31.18
2018-05-21T11:50:08.451Z,31.90
2018-05-21T11:52:36.606Z,31.77
2018-05-21T11:55:04.499Z,30.36
2018-05-21T11:57:32.489Z,29.82
2018-05-21T12:00:00.361Z,31.18
2018-05-21T12:02:28.282Z,31.64
2018-05-21T12:04:56.266Z,28.84
2018-05-21T12:07:24.169Z,30.53
2018-05-21T12:09:52.179Z,27.78
2018-05-21T12:12:20.076Z,29.87
2018-05-21T12:14:48.041Z,30.26
2018-05-21T12:17:16.031Z,32.95
2018-05-21T12:19:43.945Z,32.92
2018-05-21T12:22:11.864Z,32.02
2018-05-21T12:24:39.827Z,32.91
2018-05-21T12:27:07.778Z,29.03
2018-05-21T12:29:35.843Z,32.93
2018-05-21T12:32:03.782Z,32.77
2018-05-21T12:34:31.678Z,33.99
2018-05-21T12:36:59.591Z,30.71
2018-05-21T12:39:27.490Z,30.45
2018-05-21T12:41:55.486Z,31.71
2018-05-21T12:44:23.374Z,32.09
2018-05-21T12:46:51.390Z,32.47
2018-05-21T12:49:19.330Z,32.54
2018-05-21T12:51:47.239Z,31.03
2018-05-21T12:54:15.254Z,31.54
2018-05-21T12:56:43.171Z,32.70
2018-05-21T12:59:11.083Z,32.56
2018-05-21T13:01:39.068Z,32.27
2018-05-21T13:04:06.992Z,32.63
2018-05-21T13:06:34.900Z,32.27
2018-05-21T13:09:02.883Z,31.87
2018-05-21T13:11:30.758Z,32.54
2018-05-21T13:13:58.950Z,32.83
2018-05-21T13:16:26.867Z,32.99
2018-05-21T13:18:54.783Z,32.41
2018-05-21T13:21:23.260Z,33.22
2018-05-21T13:23:51.908Z,33.45
2018-05-21T13:26:19.811Z,33.47
2018-05-21T13:28:47.713Z,33.47
2018-05-21T13:31:15.647Z,33.77
2018-05-21T13:33:43.535Z,33.99
2018-05-21T13:36:11.488Z,33.78
2018-05-21T13:38:39.404Z,33.62
2018-05-21T13:41:07.319Z,33.96
2018-05-21T13:43:35.511Z,33.64
2018-05-21T13:46:03.415Z,33.54
2018-05-21T13:48:31.349Z,33.54
2018-05-21T13:50:59.273Z,33.42
2018-05-21T13:53:27.187Z,34.42
2018-05-21T13:55:55.093Z,33.60
2018-05-21T13:58:22.991Z,33.60
2018-05-21T14:00:50.954Z,33.59
2018-05-21T14:03:18.895Z,34.14
2018-05-21T14:05:47.012Z,34.16
2018-05-21T14:08:14.843Z,33.72
2018-05-21T14:10:42.768Z,33.67
2018-05-21T14:13:10.667Z,33.82
2018-05-21T14:15:39.156Z,35.20
2018-05-21T14:18:07.056Z,34.80
2018-05-21T14:20:35.012Z,35.81
2018-05-21T14:23:02.940Z,34.95
2018-05-21T14:25:30.998Z,34.66
2018-05-21T14:27:58.845Z,34.98
2018-05-21T14:30:26.764Z,34.79
2018-05-21T14:32:54.914Z,36.45
2018-05-21T14:35:22.880Z,34.13
2018-05-21T14:37:50.811Z,35.53
2018-05-21T14:40:18.725Z,35.73
2018-05-21T14:42:46.670Z,34.40
2018-05-21T14:45:14.650Z,34.36
2018-05-21T14:47:42.586Z,34.51
2018-05-21T14:50:10.487Z,34.91
2018-05-21T14:52:39.275Z,36.08
2018-05-21T14:55:07.233Z,37.05
2018-05-21T14:57:35.112Z,35.50
2018-05-21T15:00:03.046Z,34.51
2018-05-21T15:02:30.987Z,34.61
2018-05-21T15:04:58.944Z,36.34
2018-05-21T15:07:26.884Z,36.02
2018-05-21T15:09:54.795Z,36.12
2018-05-21T15:12:22.726Z,35.23
2018-05-21T15:14:50.620Z,36.49
2018-05-21T15:17:18.556Z,36.52
2018-05-21T15:19:46.473Z,35.92
2018-05-21T15:22:14.416Z,35.42
2018-05-21T15:24:42.309Z,35.32
2018-05-21T15:27:10.247Z,35.26
2018-05-21T15:29:38.157Z,36.78
2018-05-21T15:32:06.125Z,35.91
2018-05-21T15:34:34.658Z,36.53
2018-05-21T15:37:02.594Z,38.53
2018-05-21T15:39:30.505Z,36.04
2018-05-21T15:41:58.427Z,36.74
2018-05-21T15:44:26.348Z,38.11
2018-05-21T15:46:54.281Z,37.69
2018-05-21T15:49:22.200Z,36.56
2018-05-21T15:51:50.109Z,35.96
2018-05-21T15:54:18.044Z,36.27
2018-05-21T15:56:45.949Z,38.38
2018-05-21T15:59:13.868Z,37.55
2018-05-21T16:01:41.812Z,36.76
2018-05-21T16:04:09.713Z,36.44
2018-05-21T16:06:37.634Z,37.53
2018-05-21T16:09:05.547Z,38.04
2018-05-21T16:11:33.450Z,36.72
2018-05-21T16:14:01.352Z,37.66
2018-05-21T16:16:29.296Z,37.98
2018-05-21T16:18:57.214Z,38.49
2018-05-21T16:21:25.139Z,37.04
2018-05-21T16:23:53.151Z,37.50
2018-05-21T16:26:21.072Z,38.45
2018-05-21T16:28:48.982Z,38.73
2018-05-21T16:31:16.918Z,38.42
2018-05-21T16:33:45.026Z,38.22
2018-05-21T16:36:12.933Z,40.56
2018-05-21T16:38:40.834Z,38.07
2018-05-21T16:41:08.845Z,38.17
2018-05-21T16:43:36.895Z,38.66
2018-05-21T16:46:04.808Z,40.28
2018-05-21T16:48:32.762Z,38.72
2018-05-21T16:51:00.692Z,39.37
2018-05-21T16:53:28.755Z,38.38
2018-05-21T16:55:56.655Z,39.05
2018-05-21T16:58:24.589Z,38.24
2018-05-21T17:00:52.507Z,39.76
2018-05-21T17:03:20.493Z,38.01
2018-05-21T17:05:48.411Z,38.71
2018-05-21T17:08:16.316Z,38.57
2018-05-21T17:10:44.230Z,37.59
2018-05-21T17:13:12.146Z,38.03
2018-05-21T17:15:40.067Z,38.54
2018-05-21T17:18:08.702Z,39.43
2018-05-21T17:20:36.612Z,37.62
2018-05-21T17:23:04.540Z,38.20
2018-05-21T17:25:32.474Z,38.51
2018-05-21T17:28:00.409Z,38.35
2018-05-21T17:30:28.331Z,38.38
2018-05-21T17:32:56.260Z,39.14
2018-05-21T17:35:24.223Z,39.71
2018-05-21T17:37:52.131Z,40.46
2018-05-21T17:40:20.048Z,40.36
2018-05-21T17:42:48.873Z,41.43
2018-05-21T17:45:16.798Z,40.55
2018-05-21T17:47:44.715Z,42.16
2018-05-21T17:50:12.662Z,41.11
2018-05-21T17:52:41.549Z,41.84
2018-05-21T17:55:09.480Z,42.16
2018-05-21T17:57:38.392Z,43.71
2018-05-21T18:00:06.289Z,43.39
2018-05-21T18:02:34.188Z,42.88
2018-05-21T18:05:02.123Z,43.39
2018-05-21T18:07:30.041Z,44.22
2018-05-21T18:09:57.943Z,44.13
2018-05-21T18:12:25.864Z,45.89
2018-05-21T18:14:53.775Z,44.86
2018-05-21T18:17:21.699Z,44.85
2018-05-21T18:19:49.629Z,45.98
2018-05-21T18:22:17.561Z,45.45
2018-05-21T18:24:45.472Z,45.51
2018-05-21T18:27:13.392Z,46.28
2018-05-21T18:29:41.297Z,45.99
2018-05-21T18:32:09.233Z,46.60
2018-05-21T18:34:37.139Z,47.43
2018-05-21T18:37:05.074Z,48.52
2018-05-21T18:39:32.961Z,48.25
2018-05-21T18:42:00.932Z,48.53
2018-05-21T18:44:28.841Z,48.03
2018-05-21T18:46:56.760Z,48.97
2018-05-21T18:49:24.714Z,48.59
2018-05-21T18:51:52.636Z,49.36
2018-05-21T18:54:20.547Z,49.72
2018-05-21T18:56:48.494Z,49.85
2018-05-21T18:59:16.387Z,51.37
2018-05-21T19:01:44.341Z,50.34
2018-05-21T19:04:13.064Z,50.40
2018-05-21T19:06:40.971Z,51.08
2018-05-21T19:09:08.880Z,50.92
2018-05-21T19:11:36.825Z,50.90
2018-05-21T19:14:04.757Z,51.22
2018-05-21T19:16:32.709Z,51.43
2018-05-21T19:19:00.641Z,51.86
2018-05-21T19:21:28.555Z,52.05
2018-05-21T19:23:56.529Z,53.10
2018-05-21T19:26:24.510Z,53.25
2018-05-21T19:28:52.442Z,52.91
2018-05-21T19:31:20.435Z,53.19
2018-05-21T19:33:48.415Z,53.96
2018-05-21T19:36:16.372Z,54.04
2018-05-21T19:38:44.283Z,54.29
2018-05-21T19:41:12.211Z,54.81
2018-05-21T19:43:40.154Z,55.70
2018-05-21T19:46:08.097Z,55.42
2018-05-21T19:48:36.012Z,56.58
2018-05-21T19:51:04.016Z,57.28
2018-05-21T19:53:31.944Z,57.05
2018-05-21T19:56:00.069Z,57.35
2018-05-21T19:58:27.978Z,58.25
2018-05-21T20:00:55.887Z,58.88
2018-05-21T20:03:23.806Z,58.81
2018-05-21T20:05:51.740Z,58.67
2018-05-21T20:08:19.825Z,59.41
2018-05-21T20:10:47.855Z,59.75
2018-05-21T20:13:15.792Z,60.02
2018-05-21T20:15:43.729Z,60.25
2018-05-21T20:18:11.620Z,60.66
2018-05-21T20:20:41.523Z,60.18
2018-05-21T20:23:09.437Z,60.42
2018-05-21T20:25:37.376Z,61.28
2018-05-21T20:28:05.295Z,61.32
2018-05-21T20:30:33.285Z,62.07
2018-05-21T20:33:01.235Z,62.35
2018-05-21T20:35:29.227Z,62.79
2018-05-21T20:37:57.139Z,63.21
2018-05-21T20:40:25.051Z,62.95
2018-05-21T20:42:53.037Z,62.97
2018-05-21T20:45:21.040Z,63.56
2018-05-21T20:47:48.915Z,63.18
2018-05-21T20:50:16.873Z,64.12
2018-05-21T20:52:44.939Z,64.34
2018-05-21T20:55:12.844Z,64.92
2018-05-21T20:57:40.774Z,65.11
2018-05-21T21:00:08.682Z,65.76
2018-05-21T21:02:36.658Z,65.98
2018-05-21T21:05:04.712Z,66.27
2018-05-21T21:07:32.654Z,66.29
2018-05-21T21:10:00.571Z,66.04
2018-05-21T21:12:28.499Z,66.62
2018-05-21T21:14:56.619Z,66.78
2018-05-21T21:17:24.518Z,67.03
2018-05-21T21:19:52.463Z,67.59
2018-05-21T21:22:20.415Z,68.10
2018-05-21T21:24:48.326Z,68.02
2018-05-21T21:27:16.250Z,68.62
2018-05-21T21:29:44.405Z,68.39
2018-05-21T21:32:12.352Z,67.66
2018-05-21T21:34:40.276Z,68.66
2018-05-21T21:37:08.165Z,68.45
2018-05-21T21:39:36.117Z,68.43
2018-05-21T21:42:04.636Z,68.35
2018-05-21T21:44:32.634Z,69.24
2018-05-21T21:47:00.465Z,68.55
2018-05-21T21:49:28.583Z,69.88
2018-05-21T21:51:56.562Z,69.94
2018-05-21T21:54:24.502Z,69.74
2018-05-21T21:56:52.404Z,70.27
2018-05-21T21:59:20.341Z,69.66
2018-05-21T22:01:48.270Z,69.60
2018-05-21T22:04:16.221Z,70.16
2018-05-21T22:06:44.145Z,70.95
2018-05-21T22:09:12.122Z,70.90
2018-05-21T22:11:40.088Z,70.47
2018-05-21T22:14:08.039Z,70.94
2018-05-21T22:16:35.997Z,70.93
2018-05-21T22:19:03.888Z,71.35
2018-05-21T22:21:31.795Z,71.07
2018-05-21T22:23:59.715Z,71.42
2018-05-21T22:26:27.655Z,70.70
2018-05-21T22:28:55.557Z,71.69
2018-05-21T22:31:23.496Z,71.88
2018-05-21T22:33:51.402Z,72.19
2018-05-21T22:36:19.347Z,72.19
2018-05-21T22:38:47.286Z,72.66
2018-05-21T22:41:15.214Z,73.11
2018-05-21T22:43:43.131Z,72.96
2018-05-21T22:46:11.124Z,73.53
2018-05-21T22:48:39.100Z,74.11
2018-05-21T22:51:07.049Z,74.33
2018-05-21T22:53:34.964Z,73.32
2018-05-21T22:56:02.919Z,72.99
2018-05-21T22:58:30.887Z,73.08
2018-05-21T23:00:58.838Z,72.92
2018-05-21T23:03:26.759Z,73.07
2018-05-21T23:05:54.689Z,73.43
2018-05-21T23:08:22.658Z,73.89
2018-05-21T23:10:50.583Z,74.01
2018-05-21T23:13:18.514Z,73.36
2018-05-21T23:15:46.459Z,73.48
2018-05-21T23:18:14.395Z,73.62
2018-05-21T23:20:42.307Z,73.99
2018-05-21T23:23:10.246Z,74.08
2018-05-21T23:25:38.176Z,74.70
2018-05-21T23:28:06.113Z,74.53
2018-05-21T23:30:34.224Z,74.36
2018-05-21T23:33:02.142Z,74.42
2018-05-21T23:35:30.135Z,74.50
2018-05-21T23:37:58.051Z,74.65
2018-05-21T23:40:25.985Z,74.76
2018-05-21T23:42:53.893Z,75.07
2018-05-21T23:45:21.834Z,75.86
2018-05-21T23:47:49.774Z,74.86
2018-05-21T23:50:17.815Z,75.12
2018-05-21T23:52:45.753Z,75.15
2018-05-21T23:55:13.669Z,75.07
2018-05-21T23:57:41.575Z,75.18
